sensor_id;sensor_type;location;lat;lon;timestamp;pressure;altitude;pressure_sealevel;temperature;humidity
38718;BME280;24468;52.128;9.278;2022-12-07T00:01:30;100558.03;;;5.29;100.00
38718;BME280;24468;52.128;9.278;2022-12-07T00:03:59;100550.59;;;5.03;100.00
38718;BME280;24468;52.128;9.278;2022-12-07T00:06:42;100551.38;;;5.08;100.00
38718;BME280;24468;52.128;9.278;2022-12-07T00:09:15;100543.72;;;5.31;100.00
38718;BME280;24468;52.128;9.278;2022-12-07T00:11:42;100548.97;;;5.34;100.00
38718;BME280;24468;52.128;9.278;2022-12-07T00:14:13;100540.13;;;5.32;100.00
38718;BME280;24468;52.128;9.278;2022-12-07T00:16:39;100548.53;;;5.54;100.00
38718;BME280;24468;52.128;9.278;2022-12-07T00:19:05;100536.81;;;5.60;100.00
38718;BME280;24468;52.128;9.278;2022-12-07T00:21:34;100542.81;;;5.70;100.00
38718;BME280;24468;52.128;9.278;2022-12-07T00:24:00;100534.75;;;5.71;100.00
38718;BME280;24468;52.128;9.278;2022-12-07T00:26:32;100533.03;;;5.67;100.00
38718;BME280;24468;52.128;9.278;2022-12-07T00:29:02;100517.94;;;5.65;100.00
38718;BME280;24468;52.128;9.278;2022-12-07T00:31:32;100516.91;;;5.70;100.00
38718;BME280;24468;52.128;9.278;2022-12-07T00:33:59;100514.31;;;5.67;100.00
38718;BME280;24468;52.128;9.278;2022-12-07T00:36:26;100507.81;;;5.77;100.00
38718;BME280;24468;52.128;9.278;2022-12-07T00:38:52;100512.91;;;5.52;100.00
38718;BME280;24468;52.128;9.278;2022-12-07T00:41:21;100516.84;;;5.38;100.00
38718;BME280;24468;52.128;9.278;2022-12-07T00:43:48;100509.72;;;5.72;100.00
38718;BME280;24468;52.128;9.278;2022-12-07T00:46:15;100504.88;;;5.52;100.00
38718;BME280;24468;52.128;9.278;2022-12-07T00:48:41;100504.63;;;5.63;100.00
38718;BME280;24468;52.128;9.278;2022-12-07T00:51:08;100500.63;;;5.44;100.00
38718;BME280;24468;52.128;9.278;2022-12-07T00:53:35;100488.41;;;5.32;100.00
38718;BME280;24468;52.128;9.278;2022-12-07T00:56:06;100499.16;;;5.68;100.00
38718;BME280;24468;52.128;9.278;2022-12-07T00:58:32;100498.13;;;5.73;100.00
38718;BME280;24468;52.128;9.278;2022-12-07T01:01:03;100507.72;;;5.45;100.00
38718;BME280;24468;52.128;9.278;2022-12-07T01:03:30;100502.56;;;5.37;100.00
38718;BME280;24468;52.128;9.278;2022-12-07T01:05:56;100507.13;;;5.32;100.00
38718;BME280;24468;52.128;9.278;2022-12-07T01:08:22;100502.75;;;5.29;100.00
38718;BME280;24468;52.128;9.278;2022-12-07T01:10:49;100501.47;;;5.46;100.00
38718;BME280;24468;52.128;9.278;2022-12-07T01:13:16;100496.91;;;5.49;100.00
38718;BME280;24468;52.128;9.278;2022-12-07T01:15:43;100504.91;;;5.51;100.00
38718;BME280;24468;52.128;9.278;2022-12-07T01:18:09;100502.19;;;5.54;100.00
38718;BME280;24468;52.128;9.278;2022-12-07T01:20:35;100494.84;;;5.61;100.00
38718;BME280;24468;52.128;9.278;2022-12-07T01:23:00;100505.25;;;5.73;100.00
38718;BME280;24468;52.128;9.278;2022-12-07T01:25:26;100493.81;;;5.66;100.00
38718;BME280;24468;52.128;9.278;2022-12-07T01:27:51;100492.81;;;5.70;100.00
38718;BME280;24468;52.128;9.278;2022-12-07T01:30:17;100490.81;;;5.80;100.00
38718;BME280;24468;52.128;9.278;2022-12-07T01:32:42;100496.25;;;5.75;100.00
38718;BME280;24468;52.128;9.278;2022-12-07T01:35:08;100492.00;;;5.68;100.00
38718;BME280;24468;52.128;9.278;2022-12-07T01:37:38;100495.84;;;5.94;100.00
38718;BME280;24468;52.128;9.278;2022-12-07T01:40:07;100497.72;;;5.89;100.00
38718;BME280;24468;52.128;9.278;2022-12-07T01:42:34;100494.41;;;5.79;100.00
38718;BME280;24468;52.128;9.278;2022-12-07T01:47:54;100497.63;;;5.92;100.00
38718;BME280;24468;52.128;9.278;2022-12-07T01:50:23;100497.47;;;5.99;100.00
38718;BME280;24468;52.128;9.278;2022-12-07T01:52:50;100493.56;;;5.77;100.00
38718;BME280;24468;52.128;9.278;2022-12-07T01:55:19;100486.16;;;5.87;100.00
38718;BME280;24468;52.128;9.278;2022-12-07T01:57:49;100494.34;;;5.80;100.00
38718;BME280;24468;52.128;9.278;2022-12-07T02:00:17;100490.19;;;5.69;100.00
38718;BME280;24468;52.128;9.278;2022-12-07T02:02:53;100481.59;;;5.56;100.00
38718;BME280;24468;52.128;9.278;2022-12-07T02:05:24;100492.94;;;5.28;100.00
38718;BME280;24468;52.128;9.278;2022-12-07T02:07:51;100506.81;;;5.07;100.00
38718;BME280;24468;52.128;9.278;2022-12-07T02:10:27;100485.63;;;5.37;100.00
38718;BME280;24468;52.128;9.278;2022-12-07T02:13:39;100497.09;;;5.42;100.00
38718;BME280;24468;52.128;9.278;2022-12-07T02:16:16;100492.94;;;5.28;100.00
38718;BME280;24468;52.128;9.278;2022-12-07T02:25:02;100483.72;;;5.42;100.00
38718;BME280;24468;52.128;9.278;2022-12-07T02:27:57;100473.38;;;5.64;100.00
38718;BME280;24468;52.128;9.278;2022-12-07T02:30:31;100477.97;;;5.58;100.00
38718;BME280;24468;52.128;9.278;2022-12-07T02:33:12;100469.22;;;5.52;100.00
38718;BME280;24468;52.128;9.278;2022-12-07T02:35:48;100466.97;;;5.71;100.00
38718;BME280;24468;52.128;9.278;2022-12-07T02:41:27;100475.13;;;5.65;100.00
38718;BME280;24468;52.128;9.278;2022-12-07T02:43:59;100467.78;;;5.73;100.00
38718;BME280;24468;52.128;9.278;2022-12-07T02:46:31;100462.91;;;5.54;100.00
38718;BME280;24468;52.128;9.278;2022-12-07T02:48:58;100464.34;;;5.68;100.00
38718;BME280;24468;52.128;9.278;2022-12-07T02:51:25;100456.59;;;5.57;100.00
38718;BME280;24468;52.128;9.278;2022-12-07T02:53:51;100446.97;;;5.50;100.00
38718;BME280;24468;52.128;9.278;2022-12-07T02:59:34;100461.88;;;5.23;100.00
38718;BME280;24468;52.128;9.278;2022-12-07T03:02:31;100457.63;;;5.16;100.00
38718;BME280;24468;52.128;9.278;2022-12-07T03:05:48;100453.00;;;5.21;100.00
38718;BME280;24468;52.128;9.278;2022-12-07T03:11:16;100460.09;;;5.23;100.00
38718;BME280;24468;52.128;9.278;2022-12-07T03:14:01;100454.78;;;5.22;100.00
38718;BME280;24468;52.128;9.278;2022-12-07T03:17:05;100457.63;;;5.14;100.00
38718;BME280;24468;52.128;9.278;2022-12-07T03:19:34;100458.28;;;4.86;100.00
38718;BME280;24468;52.128;9.278;2022-12-07T03:22:09;100452.94;;;4.85;100.00
38718;BME280;24468;52.128;9.278;2022-12-07T03:24:58;100449.41;;;4.84;100.00
38718;BME280;24468;52.128;9.278;2022-12-07T03:27:49;100443.72;;;4.98;100.00
38718;BME280;24468;52.128;9.278;2022-12-07T03:30:21;100448.38;;;4.90;100.00
38718;BME280;24468;52.128;9.278;2022-12-07T03:33:00;100453.38;;;4.65;100.00
38718;BME280;24468;52.128;9.278;2022-12-07T03:35:36;100453.78;;;4.87;100.00
38718;BME280;24468;52.128;9.278;2022-12-07T03:38:40;100451.81;;;4.55;100.00
38718;BME280;24468;52.128;9.278;2022-12-07T03:41:18;100457.22;;;4.52;100.00
38718;BME280;24468;52.128;9.278;2022-12-07T03:43:47;100445.53;;;4.57;100.00
38718;BME280;24468;52.128;9.278;2022-12-07T03:54:54;100439.88;;;4.73;100.00
38718;BME280;24468;52.128;9.278;2022-12-07T03:57:23;100453.66;;;4.53;100.00
38718;BME280;24468;52.128;9.278;2022-12-07T03:59:51;100435.53;;;4.67;100.00
38718;BME280;24468;52.128;9.278;2022-12-07T04:02:17;100444.28;;;4.75;100.00
38718;BME280;24468;52.128;9.278;2022-12-07T04:04:43;100448.03;;;4.65;100.00
38718;BME280;24468;52.128;9.278;2022-12-07T04:07:09;100448.13;;;4.60;100.00
38718;BME280;24468;52.128;9.278;2022-12-07T04:09:35;100446.69;;;4.44;100.00
38718;BME280;24468;52.128;9.278;2022-12-07T04:12:00;100445.88;;;4.42;100.00
38718;BME280;24468;52.128;9.278;2022-12-07T04:14:26;100449.56;;;4.35;100.00
38718;BME280;24468;52.128;9.278;2022-12-07T04:16:55;100455.78;;;4.37;100.00
38718;BME280;24468;52.128;9.278;2022-12-07T04:19:30;100440.13;;;4.60;100.00
38718;BME280;24468;52.128;9.278;2022-12-07T04:21:57;100444.59;;;4.60;100.00
38718;BME280;24468;52.128;9.278;2022-12-07T04:24:24;100443.50;;;4.68;100.00
38718;BME280;24468;52.128;9.278;2022-12-07T04:26:50;100455.47;;;4.51;100.00
38718;BME280;24468;52.128;9.278;2022-12-07T04:29:16;100457.00;;;4.62;100.00
38718;BME280;24468;52.128;9.278;2022-12-07T04:31:42;100452.53;;;4.63;100.00
38718;BME280;24468;52.128;9.278;2022-12-07T04:34:08;100453.13;;;4.77;100.00
38718;BME280;24468;52.128;9.278;2022-12-07T04:36:34;100449.53;;;4.78;100.00
38718;BME280;24468;52.128;9.278;2022-12-07T04:39:00;100448.59;;;4.81;100.00
38718;BME280;24468;52.128;9.278;2022-12-07T04:41:26;100443.50;;;4.68;100.00
38718;BME280;24468;52.128;9.278;2022-12-07T04:44:01;100445.16;;;4.74;100.00
38718;BME280;24468;52.128;9.278;2022-12-07T04:46:30;100443.16;;;4.43;100.00
38718;BME280;24468;52.128;9.278;2022-12-07T04:48:56;100444.53;;;4.63;100.00
38718;BME280;24468;52.128;9.278;2022-12-07T04:51:28;100439.19;;;4.63;100.00
38718;BME280;24468;52.128;9.278;2022-12-07T04:53:54;100442.56;;;4.71;100.00
38718;BME280;24468;52.128;9.278;2022-12-07T04:56:21;100436.66;;;4.57;100.00
38718;BME280;24468;52.128;9.278;2022-12-07T04:58:48;100442.69;;;4.65;100.00
38718;BME280;24468;52.128;9.278;2022-12-07T05:01:15;100436.69;;;4.55;100.00
38718;BME280;24468;52.128;9.278;2022-12-07T05:03:41;100451.00;;;4.51;100.00
38718;BME280;24468;52.128;9.278;2022-12-07T05:06:09;100437.28;;;4.68;100.00
38718;BME280;24468;52.128;9.278;2022-12-07T05:08:35;100432.72;;;4.75;100.00
38718;BME280;24468;52.128;9.278;2022-12-07T05:11:01;100445.00;;;4.82;100.00
38718;BME280;24468;52.128;9.278;2022-12-07T05:13:27;100437.09;;;4.77;100.00
38718;BME280;24468;52.128;9.278;2022-12-07T05:15:53;100433.88;;;4.61;100.00
38718;BME280;24468;52.128;9.278;2022-12-07T05:18:18;100436.19;;;4.36;100.00
38718;BME280;24468;52.128;9.278;2022-12-07T05:20:44;100440.91;;;4.65;100.00
38718;BME280;24468;52.128;9.278;2022-12-07T05:23:10;100426.81;;;4.59;100.00
38718;BME280;24468;52.128;9.278;2022-12-07T05:25:36;100431.13;;;4.64;100.00
38718;BME280;24468;52.128;9.278;2022-12-07T05:28:03;100436.91;;;4.44;100.00
38718;BME280;24468;52.128;9.278;2022-12-07T05:30:29;100440.19;;;4.57;100.00
38718;BME280;24468;52.128;9.278;2022-12-07T05:32:55;100434.91;;;4.54;100.00
38718;BME280;24468;52.128;9.278;2022-12-07T05:35:20;100443.72;;;4.59;100.00
38718;BME280;24468;52.128;9.278;2022-12-07T05:37:46;100442.91;;;4.56;100.00
38718;BME280;24468;52.128;9.278;2022-12-07T05:40:12;100447.41;;;4.54;100.00
38718;BME280;24468;52.128;9.278;2022-12-07T05:42:39;100440.56;;;4.40;100.00
38718;BME280;24468;52.128;9.278;2022-12-07T05:45:05;100444.94;;;4.44;100.00
38718;BME280;24468;52.128;9.278;2022-12-07T05:47:31;100433.50;;;4.78;100.00
38718;BME280;24468;52.128;9.278;2022-12-07T05:49:57;100440.66;;;4.78;100.00
38718;BME280;24468;52.128;9.278;2022-12-07T05:52:23;100434.53;;;4.71;100.00
38718;BME280;24468;52.128;9.278;2022-12-07T05:54:49;100435.47;;;4.70;100.00
38718;BME280;24468;52.128;9.278;2022-12-07T05:57:14;100434.13;;;4.51;100.00
38718;BME280;24468;52.128;9.278;2022-12-07T05:59:40;100437.50;;;4.59;100.00
38718;BME280;24468;52.128;9.278;2022-12-07T06:02:10;100437.59;;;4.54;100.00
38718;BME280;24468;52.128;9.278;2022-12-07T06:04:42;100425.88;;;4.61;100.00
38718;BME280;24468;52.128;9.278;2022-12-07T06:07:10;100431.16;;;4.63;100.00
38718;BME280;24468;52.128;9.278;2022-12-07T06:09:37;100433.59;;;4.74;100.00
38718;BME280;24468;52.128;9.278;2022-12-07T06:12:03;100428.94;;;4.41;100.00
38718;BME280;24468;52.128;9.278;2022-12-07T06:14:47;100416.97;;;4.61;100.00
38718;BME280;24468;52.128;9.278;2022-12-07T06:17:14;100428.81;;;4.88;100.00
38718;BME280;24468;52.128;9.278;2022-12-07T06:19:40;100430.06;;;4.72;100.00
38718;BME280;24468;52.128;9.278;2022-12-07T06:22:06;100426.22;;;4.85;100.00
38718;BME280;24468;52.128;9.278;2022-12-07T06:24:33;100429.13;;;4.74;100.00
38718;BME280;24468;52.128;9.278;2022-12-07T06:26:59;100422.63;;;4.45;100.00
38718;BME280;24468;52.128;9.278;2022-12-07T06:29:25;100421.41;;;4.60;100.00
38718;BME280;24468;52.128;9.278;2022-12-07T06:31:51;100431.88;;;4.71;100.00
38718;BME280;24468;52.128;9.278;2022-12-07T06:34:20;100428.78;;;4.89;100.00
38718;BME280;24468;52.128;9.278;2022-12-07T06:36:46;100433.25;;;4.89;100.00
38718;BME280;24468;52.128;9.278;2022-12-07T06:39:21;100426.91;;;4.93;100.00
38718;BME280;24468;52.128;9.278;2022-12-07T06:41:47;100434.13;;;4.89;100.00
38718;BME280;24468;52.128;9.278;2022-12-07T06:44:13;100438.88;;;4.77;100.00
38718;BME280;24468;52.128;9.278;2022-12-07T06:46:39;100442.16;;;4.89;100.00
38718;BME280;24468;52.128;9.278;2022-12-07T06:49:04;100439.78;;;4.77;100.00
38718;BME280;24468;52.128;9.278;2022-12-07T06:51:31;100447.66;;;4.82;100.00
38718;BME280;24468;52.128;9.278;2022-12-07T06:53:57;100439.56;;;4.85;100.00
38718;BME280;24468;52.128;9.278;2022-12-07T06:56:23;100439.88;;;4.71;100.00
38718;BME280;24468;52.128;9.278;2022-12-07T06:58:49;100443.78;;;4.56;100.00
38718;BME280;24468;52.128;9.278;2022-12-07T07:01:17;100448.75;;;4.75;100.00
38718;BME280;24468;52.128;9.278;2022-12-07T07:03:45;100457.34;;;4.47;100.00
38718;BME280;24468;52.128;9.278;2022-12-07T07:06:12;100446.31;;;4.62;100.00
38718;BME280;24468;52.128;9.278;2022-12-07T07:08:39;100461.78;;;4.48;100.00
38718;BME280;24468;52.128;9.278;2022-12-07T07:11:06;100452.25;;;4.33;100.00
38718;BME280;24468;52.128;9.278;2022-12-07T07:13:32;100455.78;;;4.37;100.00
38718;BME280;24468;52.128;9.278;2022-12-07T07:15:58;100459.19;;;4.43;100.00
38718;BME280;24468;52.128;9.278;2022-12-07T07:18:24;100454.59;;;4.50;100.00
38718;BME280;24468;52.128;9.278;2022-12-07T07:20:51;100460.16;;;4.39;100.00
38718;BME280;24468;52.128;9.278;2022-12-07T07:23:17;100453.53;;;4.59;100.00
38718;BME280;24468;52.128;9.278;2022-12-07T07:25:44;100445.94;;;4.39;100.00
38718;BME280;24468;52.128;9.278;2022-12-07T07:28:09;100452.25;;;4.33;100.00
38718;BME280;24468;52.128;9.278;2022-12-07T07:30:35;100459.50;;;4.28;100.00
38718;BME280;24468;52.128;9.278;2022-12-07T07:33:02;100455.91;;;4.31;100.00
38718;BME280;24468;52.128;9.278;2022-12-07T07:35:30;100454.91;;;4.36;100.00
38718;BME280;24468;52.128;9.278;2022-12-07T07:37:56;100455.84;;;4.34;100.00
38718;BME280;24468;52.128;9.278;2022-12-07T07:40:22;100457.72;;;4.27;100.00
38718;BME280;24468;52.128;9.278;2022-12-07T07:42:49;100455.66;;;4.41;100.00
38718;BME280;24468;52.128;9.278;2022-12-07T07:45:15;100469.41;;;4.23;100.00
38718;BME280;24468;52.128;9.278;2022-12-07T07:47:41;100474.69;;;4.26;100.00
38718;BME280;24468;52.128;9.278;2022-12-07T07:50:07;100463.63;;;4.44;100.00
38718;BME280;24468;52.128;9.278;2022-12-07T07:52:32;100479.75;;;4.40;100.00
38718;BME280;24468;52.128;9.278;2022-12-07T07:54:58;100473.25;;;4.52;100.00
38718;BME280;24468;52.128;9.278;2022-12-07T07:57:23;100485.72;;;4.53;100.00
38718;BME280;24468;52.128;9.278;2022-12-07T07:59:49;100483.16;;;4.46;100.00
38718;BME280;24468;52.128;9.278;2022-12-07T08:02:17;100468.13;;;4.42;100.00
38718;BME280;24468;52.128;9.278;2022-12-07T08:04:43;100464.44;;;4.48;100.00
38718;BME280;24468;52.128;9.278;2022-12-07T08:07:09;100478.59;;;4.52;100.00
38718;BME280;24468;52.128;9.278;2022-12-07T08:09:35;100468.06;;;4.45;100.00
38718;BME280;24468;52.128;9.278;2022-12-07T08:12:00;100473.03;;;4.62;100.00
38718;BME280;24468;52.128;9.278;2022-12-07T08:14:26;100477.84;;;4.88;100.00
38718;BME280;24468;52.128;9.278;2022-12-07T08:16:52;100481.91;;;4.64;100.00
38718;BME280;24468;52.128;9.278;2022-12-07T08:19:18;100482.66;;;4.71;100.00
38718;BME280;24468;52.128;9.278;2022-12-07T08:21:44;100486.47;;;4.59;100.00
38718;BME280;24468;52.128;9.278;2022-12-07T08:24:09;100482.78;;;4.66;100.00
38718;BME280;24468;52.128;9.278;2022-12-07T08:26:35;100485.91;;;4.43;100.00
38718;BME280;24468;52.128;9.278;2022-12-07T08:29:01;100482.13;;;4.55;100.00
38718;BME280;24468;52.128;9.278;2022-12-07T08:31:26;100479.78;;;4.80;100.00
38718;BME280;24468;52.128;9.278;2022-12-07T08:33:53;100477.47;;;4.63;100.00
38718;BME280;24468;52.128;9.278;2022-12-07T08:36:18;100482.78;;;4.66;100.00
38718;BME280;24468;52.128;9.278;2022-12-07T08:38:44;100484.50;;;4.69;100.00
38718;BME280;24468;52.128;9.278;2022-12-07T08:41:10;100485.59;;;4.59;100.00
38718;BME280;24468;52.128;9.278;2022-12-07T08:43:36;100482.94;;;4.57;100.00
38718;BME280;24468;52.128;9.278;2022-12-07T08:48:57;100480.03;;;4.68;100.00
38718;BME280;24468;52.128;9.278;2022-12-07T08:51:24;100479.31;;;4.60;100.00
38718;BME280;24468;52.128;9.278;2022-12-07T08:53:50;100491.34;;;4.39;100.00
38718;BME280;24468;52.128;9.278;2022-12-07T08:56:18;100478.66;;;4.50;100.00
38718;BME280;24468;52.128;9.278;2022-12-07T08:58:44;100489.56;;;4.39;100.00
38718;BME280;24468;52.128;9.278;2022-12-07T09:01:09;100482.19;;;4.51;100.00
38718;BME280;24468;52.128;9.278;2022-12-07T09:03:35;100483.94;;;4.52;100.00
38718;BME280;24468;52.128;9.278;2022-12-07T09:06:01;100486.97;;;4.78;100.00
38718;BME280;24468;52.128;9.278;2022-12-07T09:08:33;100492.63;;;4.63;100.00
38718;BME280;24468;52.128;9.278;2022-12-07T09:11:00;100492.31;;;4.78;100.00
38718;BME280;24468;52.128;9.278;2022-12-07T09:13:25;100490.66;;;4.71;100.00
38718;BME280;24468;52.128;9.278;2022-12-07T09:15:51;100501.00;;;4.88;100.00
38718;BME280;24468;52.128;9.278;2022-12-07T09:18:16;100500.53;;;4.69;100.00
38718;BME280;24468;52.128;9.278;2022-12-07T09:20:42;100505.81;;;4.72;100.00
38718;BME280;24468;52.128;9.278;2022-12-07T09:23:07;100501.63;;;4.59;100.00
38718;BME280;24468;52.128;9.278;2022-12-07T09:25:34;100507.94;;;4.55;100.00
38718;BME280;24468;52.128;9.278;2022-12-07T09:28:00;100499.56;;;4.72;100.00
38718;BME280;24468;52.128;9.278;2022-12-07T09:30:27;100499.09;;;4.95;100.00
38718;BME280;24468;52.128;9.278;2022-12-07T09:32:54;100499.28;;;4.85;100.00
38718;BME280;24468;52.128;9.278;2022-12-07T09:35:20;100499.38;;;4.81;100.00
38718;BME280;24468;52.128;9.278;2022-12-07T09:37:46;100497.09;;;4.62;100.00
38718;BME280;24468;52.128;9.278;2022-12-07T09:40:12;100501.25;;;4.77;100.00
38718;BME280;24468;52.128;9.278;2022-12-07T09:42:43;100488.78;;;4.76;100.00
38718;BME280;24468;52.128;9.278;2022-12-07T09:45:21;100491.19;;;4.88;100.00
38718;BME280;24468;52.128;9.278;2022-12-07T09:47:47;100488.47;;;4.92;100.00
38718;BME280;24468;52.128;9.278;2022-12-07T09:50:20;100489.66;;;4.77;100.00
38718;BME280;24468;52.128;9.278;2022-12-07T09:52:47;100490.00;;;5.02;100.00
38718;BME280;24468;52.128;9.278;2022-12-07T09:55:27;100492.97;;;4.88;100.00
38718;BME280;24468;52.128;9.278;2022-12-07T09:57:54;100492.09;;;4.87;100.00
38718;BME280;24468;52.128;9.278;2022-12-07T10:00:22;100483.81;;;5.00;100.00
38718;BME280;24468;52.128;9.278;2022-12-07T10:05:26;100471.03;;;5.50;100.00
38718;BME280;24468;52.128;9.278;2022-12-07T10:07:53;100477.94;;;5.60;100.00
38718;BME280;24468;52.128;9.278;2022-12-07T10:10:33;100468.50;;;5.79;100.00
38718;BME280;24468;52.128;9.278;2022-12-07T10:13:06;100466.44;;;5.91;100.00
38718;BME280;24468;52.128;9.278;2022-12-07T10:15:58;100476.50;;;5.45;100.00
38718;BME280;24468;52.128;9.278;2022-12-07T10:18:36;100465.69;;;5.50;100.00
38718;BME280;24468;52.128;9.278;2022-12-07T10:23:35;100478.53;;;5.35;100.00
38718;BME280;24468;52.128;9.278;2022-12-07T10:32:04;100472.69;;;5.55;100.00
38718;BME280;24468;52.128;9.278;2022-12-07T10:34:36;100466.41;;;5.56;100.00
38718;BME280;24468;52.128;9.278;2022-12-07T10:39:57;100455.78;;;5.53;100.00
38718;BME280;24468;52.128;9.278;2022-12-07T10:42:31;100442.63;;;5.46;100.00
38718;BME280;24468;52.128;9.278;2022-12-07T10:45:15;100454.97;;;5.50;100.00
38718;BME280;24468;52.128;9.278;2022-12-07T10:48:48;100460.31;;;5.51;100.00
38718;BME280;24468;52.128;9.278;2022-12-07T10:51:38;100448.34;;;5.65;100.00
38718;BME280;24468;52.128;9.278;2022-12-07T10:54:32;100443.63;;;5.40;100.00
38718;BME280;24468;52.128;9.278;2022-12-07T10:57:31;100452.38;;;5.47;100.00
38718;BME280;24468;52.128;9.278;2022-12-07T11:00:25;100450.06;;;5.67;100.00
38718;BME280;24468;52.128;9.278;2022-12-07T11:03:20;100453.00;;;5.22;100.00
38718;BME280;24468;52.128;9.278;2022-12-07T11:06:08;100446.09;;;5.48;100.00
38718;BME280;24468;52.128;9.278;2022-12-07T11:11:59;100440.28;;;5.66;100.00
38718;BME280;24468;52.128;9.278;2022-12-07T11:14:40;100434.78;;;6.07;100.00
38718;BME280;24468;52.128;9.278;2022-12-07T11:17:17;100446.47;;;6.04;100.00
38718;BME280;24468;52.128;9.278;2022-12-07T11:22:54;100445.44;;;6.08;100.00
38718;BME280;24468;52.128;9.278;2022-12-07T11:25:38;100436.44;;;6.11;100.00
38718;BME280;24468;52.128;9.278;2022-12-07T11:31:22;100411.00;;;6.57;100.00
38718;BME280;24468;52.128;9.278;2022-12-07T11:33:53;100414.13;;;6.73;100.00
38718;BME280;24468;52.128;9.278;2022-12-07T11:36:47;100407.41;;;6.28;100.00
38718;BME280;24468;52.128;9.278;2022-12-07T11:39:39;100386.47;;;6.41;100.00
38718;BME280;24468;52.128;9.278;2022-12-07T11:42:16;100411.25;;;6.18;100.00
38718;BME280;24468;52.128;9.278;2022-12-07T11:44:55;100404.56;;;6.33;100.00
38718;BME280;24468;52.128;9.278;2022-12-07T11:47:38;100394.25;;;6.50;100.00
38718;BME280;24468;52.128;9.278;2022-12-07T12:03:52;100396.63;;;5.98;100.00
38718;BME280;24468;52.128;9.278;2022-12-07T12:06:20;100382.59;;;5.89;100.00
38718;BME280;24468;52.128;9.278;2022-12-07T12:23:44;100380.38;;;6.06;100.00
38718;BME280;24468;52.128;9.278;2022-12-07T12:26:24;100369.94;;;6.27;100.00
38718;BME280;24468;52.128;9.278;2022-12-07T12:28:59;100377.63;;;6.08;100.00
38718;BME280;24468;52.128;9.278;2022-12-07T12:31:39;100383.41;;;5.91;100.00
38718;BME280;24468;52.128;9.278;2022-12-07T12:34:40;100364.66;;;6.23;100.00
38718;BME280;24468;52.128;9.278;2022-12-07T12:49:40;100356.97;;;6.11;100.00
38718;BME280;24468;52.128;9.278;2022-12-07T12:55:12;100360.69;;;5.73;100.00
38718;BME280;24468;52.128;9.278;2022-12-07T12:57:38;100352.06;;;6.27;100.00
38718;BME280;24468;52.128;9.278;2022-12-07T13:00:23;100352.28;;;5.87;100.00
38718;BME280;24468;52.128;9.278;2022-12-07T13:02:55;100358.00;;;6.07;100.00
38718;BME280;24468;52.128;9.278;2022-12-07T13:05:27;100345.09;;;5.89;100.00
38718;BME280;24468;52.128;9.278;2022-12-07T13:08:18;100346.13;;;5.85;100.00
38718;BME280;24468;52.128;9.278;2022-12-07T13:10:47;100350.50;;;5.87;100.00
38718;BME280;24468;52.128;9.278;2022-12-07T13:16:36;100346.53;;;6.02;100.00
38718;BME280;24468;52.128;9.278;2022-12-07T13:18:41;100354.75;;;5.96;100.00
38718;BME280;24468;52.128;9.278;2022-12-07T13:23:55;100342.06;;;6.03;100.00
38718;BME280;24468;52.128;9.278;2022-12-07T13:26:36;100355.22;;;6.10;100.00
38718;BME280;24468;52.128;9.278;2022-12-07T13:34:32;100323.19;;;6.65;100.00
38718;BME280;24468;52.128;9.278;2022-12-07T13:39:58;100319.00;;;6.28;100.00
38718;BME280;24468;52.128;9.278;2022-12-07T13:42:31;100324.84;;;6.41;100.00
38718;BME280;24468;52.128;9.278;2022-12-07T13:44:59;100320.97;;;6.51;100.00
38718;BME280;24468;52.128;9.278;2022-12-07T13:47:43;100323.09;;;6.10;100.00
38718;BME280;24468;52.128;9.278;2022-12-07T13:50:29;100314.84;;;6.46;100.00
38718;BME280;24468;52.128;9.278;2022-12-07T13:52:57;100326.88;;;6.33;100.00
38718;BME280;24468;52.128;9.278;2022-12-07T13:55:23;100322.03;;;6.45;100.00
38718;BME280;24468;52.128;9.278;2022-12-07T13:57:52;100317.44;;;6.19;100.00
38718;BME280;24468;52.128;9.278;2022-12-07T14:00:24;100316.75;;;6.13;100.00
38718;BME280;24468;52.128;9.278;2022-12-07T14:02:59;100321.25;;;6.12;100.00
38718;BME280;24468;52.128;9.278;2022-12-07T14:05:27;100331.88;;;5.84;100.00
38718;BME280;24468;52.128;9.278;2022-12-07T14:08:02;100324.63;;;6.19;100.00
38718;BME280;24468;52.128;9.278;2022-12-07T14:10:33;100332.19;;;6.05;100.00
38718;BME280;24468;52.128;9.278;2022-12-07T14:13:02;100335.50;;;6.13;100.00
38718;BME280;24468;52.128;9.278;2022-12-07T14:15:33;100327.91;;;5.65;100.00
38718;BME280;24468;52.128;9.278;2022-12-07T14:18:02;100343.94;;;5.66;100.00
38718;BME280;24468;52.128;9.278;2022-12-07T14:20:40;100328.72;;;5.35;100.00
38718;BME280;24468;52.128;9.278;2022-12-07T14:23:25;100313.47;;;5.39;100.00
38718;BME280;24468;52.128;9.278;2022-12-07T14:25:52;100312.03;;;5.58;100.00
38718;BME280;24468;52.128;9.278;2022-12-07T14:28:31;100316.03;;;5.44;100.00
38718;BME280;24468;52.128;9.278;2022-12-07T14:30:57;100312.19;;;5.85;100.00
38718;BME280;24468;52.128;9.278;2022-12-07T14:33:24;100310.53;;;5.48;100.00
38718;BME280;24468;52.128;9.278;2022-12-07T14:35:50;100312.28;;;5.82;100.00
38718;BME280;24468;52.128;9.278;2022-12-07T14:38:15;100319.97;;;5.62;100.00
38718;BME280;24468;52.128;9.278;2022-12-07T14:40:43;100309.34;;;5.60;100.00
38718;BME280;24468;52.128;9.278;2022-12-07T14:43:12;100309.03;;;5.71;100.00
38718;BME280;24468;52.128;9.278;2022-12-07T14:45:40;100311.47;;;5.78;100.00
38718;BME280;24468;52.128;9.278;2022-12-07T14:48:07;100308.66;;;5.83;100.00
38718;BME280;24468;52.128;9.278;2022-12-07T14:50:38;100314.69;;;5.60;100.00
38718;BME280;24468;52.128;9.278;2022-12-07T14:53:15;100313.16;;;5.83;100.00
38718;BME280;24468;52.128;9.278;2022-12-07T14:55:42;100303.13;;;5.89;100.00
38718;BME280;24468;52.128;9.278;2022-12-07T14:58:15;100303.38;;;5.82;100.00
38718;BME280;24468;52.128;9.278;2022-12-07T15:00:41;100317.09;;;5.69;100.00